createdAt,value
2023-03-31T00:02:01.927Z,2.23
2023-03-31T00:04:32.101Z,2.30
2023-03-31T00:07:00.517Z,2.00
2023-03-31T00:09:29.926Z,3.00
2023-03-31T00:11:58.397Z,2.03
2023-03-31T00:14:26.602Z,2.87
2023-03-31T00:16:54.803Z,3.27
2023-03-31T00:19:23.046Z,3.20
2023-03-31T00:21:54.521Z,3.50
2023-03-31T00:24:22.698Z,3.97
2023-03-31T00:26:50.946Z,3.70
2023-03-31T00:29:19.429Z,3.57
2023-03-31T00:31:47.771Z,5.00
2023-03-31T00:34:15.993Z,3.43
2023-03-31T00:36:47.472Z,5.13
2023-03-31T00:39:18.008Z,3.50
2023-03-31T00:41:46.397Z,3.60
2023-03-31T00:44:18.886Z,3.00
2023-03-31T00:46:51.102Z,6.13
2023-03-31T00:49:22.811Z,4.53
2023-03-31T00:51:53.949Z,2.87
2023-03-31T00:54:26.544Z,4.33
2023-03-31T00:56:58.528Z,3.27
2023-03-31T00:59:29.364Z,3.30
2023-03-31T01:02:02.702Z,2.50
2023-03-31T01:04:32.587Z,2.83
2023-03-31T01:07:02.719Z,3.90
2023-03-31T01:09:35.162Z,4.20
2023-03-31T01:12:05.158Z,3.13
2023-03-31T01:14:33.443Z,2.93
2023-03-31T01:17:02.926Z,3.57
2023-03-31T01:19:34.827Z,3.10
2023-03-31T01:22:23.864Z,3.00
2023-03-31T01:27:59.498Z,3.70
2023-03-31T01:30:37.412Z,3.60
2023-03-31T01:33:14.293Z,2.70
2023-03-31T01:35:49.693Z,4.60
2023-03-31T01:38:35.888Z,3.20
2023-03-31T01:41:20.946Z,3.50
2023-03-31T01:43:51.963Z,3.53
2023-03-31T01:46:23.339Z,3.77
2023-03-31T01:48:55.153Z,3.83
2023-03-31T01:51:30.183Z,5.30
2023-03-31T01:54:03.178Z,3.53
2023-03-31T01:56:36.101Z,3.00
2023-03-31T01:59:08.163Z,3.00
2023-03-31T02:01:39.212Z,2.93
2023-03-31T02:04:09.366Z,3.40
2023-03-31T02:06:40.373Z,3.43
2023-03-31T02:09:10.872Z,3.40
2023-03-31T02:11:41.432Z,2.70
2023-03-31T02:14:11.789Z,2.80
2023-03-31T02:16:47.504Z,3.03
2023-03-31T02:19:18.877Z,3.80
2023-03-31T02:21:49.704Z,2.77
2023-03-31T02:24:18.803Z,2.97
2023-03-31T02:26:51.096Z,2.40
2023-03-31T02:29:19.429Z,2.43
2023-03-31T02:31:49.610Z,2.20
2023-03-31T02:34:17.917Z,2.57
2023-03-31T02:36:46.898Z,2.40
2023-03-31T02:39:17.452Z,2.20
2023-03-31T02:41:45.825Z,2.23
2023-03-31T02:44:15.830Z,1.80
2023-03-31T02:46:44.429Z,1.93
2023-03-31T02:49:14.130Z,2.53
2023-03-31T02:51:49.655Z,1.97
2023-03-31T02:54:27.116Z,1.50
2023-03-31T02:57:09.887Z,1.87
2023-03-31T02:59:49.502Z,2.13
2023-03-31T03:02:21.025Z,1.63
2023-03-31T03:04:59.319Z,1.70
2023-03-31T03:07:30.545Z,2.23
2023-03-31T03:10:02.656Z,1.50
2023-03-31T03:12:34.354Z,1.03
2023-03-31T03:15:06.968Z,1.57
2023-03-31T03:17:36.734Z,1.53
2023-03-31T03:20:08.295Z,1.30
2023-03-31T03:22:37.201Z,1.10
2023-03-31T03:25:05.555Z,1.43
2023-03-31T03:27:33.835Z,2.40
2023-03-31T03:30:02.663Z,1.80
2023-03-31T03:32:33.677Z,1.67
2023-03-31T03:35:02.010Z,1.70
2023-03-31T03:37:30.481Z,1.93
2023-03-31T03:39:58.875Z,1.60
2023-03-31T03:42:27.148Z,2.03
2023-03-31T03:44:55.391Z,1.70
2023-03-31T03:47:23.670Z,1.53
2023-03-31T03:49:53.276Z,1.77
2023-03-31T03:52:21.755Z,1.20
2023-03-31T03:54:50.192Z,1.87
2023-03-31T03:57:18.591Z,1.60
2023-03-31T03:59:46.859Z,1.50
2023-03-31T04:02:15.411Z,1.80
2023-03-31T04:04:43.762Z,1.60
2023-03-31T04:07:13.379Z,1.77
2023-03-31T04:09:41.708Z,1.50
2023-03-31T04:12:09.994Z,1.80
2023-03-31T04:14:38.207Z,1.63
2023-03-31T04:17:06.508Z,1.30
2023-03-31T04:19:34.722Z,1.70
2023-03-31T04:22:04.887Z,2.00
2023-03-31T04:24:34.543Z,1.87
2023-03-31T04:27:07.259Z,1.60
2023-03-31T04:29:37.283Z,2.00
2023-03-31T04:32:05.662Z,1.60
2023-03-31T04:34:36.047Z,1.30
2023-03-31T04:37:04.767Z,1.30
2023-03-31T04:39:33.067Z,1.43
2023-03-31T04:42:02.928Z,1.30
2023-03-31T04:44:31.469Z,1.37
2023-03-31T04:47:02.896Z,1.37
2023-03-31T04:49:33.536Z,1.10
2023-03-31T04:52:03.399Z,1.50
2023-03-31T04:54:31.599Z,1.50
2023-03-31T04:56:59.867Z,1.50
2023-03-31T04:59:29.474Z,1.07
2023-03-31T05:01:57.801Z,1.20
2023-03-31T05:04:26.465Z,3.23
2023-03-31T05:06:55.163Z,1.60
2023-03-31T05:09:23.545Z,1.03
2023-03-31T05:11:51.771Z,1.10
2023-03-31T05:14:20.924Z,0.97
2023-03-31T05:16:50.681Z,1.17
2023-03-31T05:19:19.287Z,1.30
2023-03-31T05:21:47.572Z,0.90
2023-03-31T05:24:15.874Z,1.20
2023-03-31T05:26:48.460Z,1.07
2023-03-31T05:29:17.843Z,1.47
2023-03-31T05:31:46.150Z,1.07
2023-03-31T05:34:16.286Z,1.10
2023-03-31T05:36:44.580Z,0.90
2023-03-31T05:39:12.947Z,0.80
2023-03-31T05:41:41.187Z,1.10
2023-03-31T05:44:09.526Z,1.10
2023-03-31T05:46:37.771Z,0.80
2023-03-31T05:49:06.428Z,1.20
2023-03-31T05:51:36.717Z,1.10
2023-03-31T05:54:06.566Z,1.40
2023-03-31T05:56:34.909Z,1.10
2023-03-31T05:59:05.041Z,1.00
2023-03-31T06:01:33.709Z,1.00
2023-03-31T06:04:02.127Z,1.17
2023-03-31T06:06:32.315Z,1.23
2023-03-31T06:09:02.507Z,1.27
2023-03-31T06:11:30.882Z,1.20
2023-03-31T06:13:59.177Z,1.83
2023-03-31T06:16:29.085Z,1.23
2023-03-31T06:18:57.513Z,1.03
2023-03-31T06:21:25.758Z,1.30
2023-03-31T06:23:56.072Z,1.50
2023-03-31T06:26:25.985Z,1.10
2023-03-31T06:28:54.339Z,1.70
2023-03-31T06:31:26.523Z,1.13
2023-03-31T06:33:55.475Z,1.47
2023-03-31T06:36:24.292Z,1.33
2023-03-31T06:38:52.704Z,1.43
2023-03-31T06:41:22.270Z,1.77
2023-03-31T06:43:52.662Z,1.83
2023-03-31T06:46:21.170Z,1.40
2023-03-31T06:48:49.423Z,1.47
2023-03-31T06:51:17.785Z,1.30
2023-03-31T06:53:45.993Z,1.50
2023-03-31T06:56:14.242Z,1.40
2023-03-31T06:58:42.476Z,1.83
2023-03-31T07:01:12.381Z,1.40
2023-03-31T07:03:41.111Z,1.23
2023-03-31T07:06:09.433Z,1.53
2023-03-31T07:08:37.679Z,1.37
2023-03-31T07:11:09.303Z,1.50
2023-03-31T07:13:37.863Z,1.80
2023-03-31T07:16:07.369Z,1.43
2023-03-31T07:18:41.293Z,1.60
2023-03-31T07:21:10.368Z,1.70
2023-03-31T07:23:39.360Z,2.17
2023-03-31T07:26:07.861Z,1.90
2023-03-31T07:28:36.784Z,1.77
2023-03-31T07:31:05.355Z,2.83
2023-03-31T07:33:33.689Z,2.03
2023-03-31T07:36:12.870Z,1.93
2023-03-31T07:38:42.771Z,1.90
2023-03-31T07:41:12.809Z,2.03
2023-03-31T07:43:41.157Z,1.63
2023-03-31T07:46:15.398Z,2.47
2023-03-31T07:48:43.984Z,2.20
2023-03-31T07:51:13.661Z,2.10
2023-03-31T07:53:41.862Z,2.97
2023-03-31T07:56:10.287Z,2.63
2023-03-31T07:58:38.573Z,3.00
2023-03-31T08:01:08.090Z,3.67
2023-03-31T08:03:36.689Z,2.90
2023-03-31T08:06:05.300Z,3.57
2023-03-31T08:08:35.162Z,3.17
2023-03-31T08:11:03.712Z,2.50
2023-03-31T08:13:32.015Z,3.17
2023-03-31T08:16:00.291Z,3.67
2023-03-31T08:18:28.636Z,5.00
2023-03-31T08:20:56.908Z,3.17
2023-03-31T08:23:25.300Z,3.77
2023-03-31T08:25:54.909Z,4.57
2023-03-31T08:28:23.225Z,3.07
2023-03-31T08:30:52.019Z,3.33
2023-03-31T08:33:20.238Z,5.00
2023-03-31T08:35:48.437Z,3.40
2023-03-31T08:38:16.709Z,3.60
2023-03-31T08:40:44.913Z,2.83
2023-03-31T08:43:17.128Z,5.80
2023-03-31T08:45:48.029Z,3.60
2023-03-31T08:48:25.622Z,3.03
2023-03-31T08:50:56.037Z,2.67
2023-03-31T08:53:26.819Z,2.70
2023-03-31T08:55:56.500Z,3.53
2023-03-31T08:58:32.660Z,2.90
2023-03-31T09:01:03.897Z,3.43
2023-03-31T09:03:37.406Z,2.70
2023-03-31T09:06:08.231Z,2.73
2023-03-31T09:08:38.021Z,2.90
2023-03-31T09:11:11.473Z,3.20
2023-03-31T09:13:52.694Z,4.27
2023-03-31T09:16:22.529Z,2.73
2023-03-31T09:18:51.470Z,2.60
2023-03-31T09:21:21.984Z,2.27
2023-03-31T09:23:53.042Z,3.87
2023-03-31T09:26:24.875Z,2.40
2023-03-31T09:28:55.332Z,2.10
2023-03-31T09:31:24.210Z,3.00
2023-03-31T09:33:54.573Z,3.40
2023-03-31T09:36:23.743Z,3.20
2023-03-31T09:38:52.611Z,2.87
2023-03-31T09:41:21.459Z,2.97
2023-03-31T09:43:51.857Z,2.30
2023-03-31T09:46:26.244Z,2.20
2023-03-31T09:48:57.198Z,3.37
2023-03-31T09:51:29.798Z,2.33
2023-03-31T09:54:00.172Z,2.30
2023-03-31T09:56:35.998Z,2.53
2023-03-31T09:59:05.299Z,2.37
2023-03-31T10:01:37.418Z,3.70
2023-03-31T10:04:10.186Z,3.30
2023-03-31T10:06:42.376Z,3.67
2023-03-31T10:09:12.083Z,2.90
2023-03-31T10:11:41.085Z,2.37
2023-03-31T10:14:14.512Z,2.30
2023-03-31T10:16:47.821Z,2.90
2023-03-31T10:19:21.349Z,3.00
2023-03-31T10:21:50.660Z,2.90
2023-03-31T10:24:20.923Z,2.73
2023-03-31T10:26:50.555Z,2.57
2023-03-31T10:29:25.518Z,2.87
2023-03-31T10:31:55.196Z,2.83
2023-03-31T10:34:23.647Z,2.67
2023-03-31T10:36:53.054Z,2.90
2023-03-31T10:39:21.861Z,2.70
2023-03-31T10:41:53.188Z,2.70
2023-03-31T10:44:36.922Z,3.50
2023-03-31T10:47:07.985Z,3.70
2023-03-31T10:49:39.636Z,3.00
2023-03-31T10:52:16.899Z,3.90
2023-03-31T10:54:48.834Z,4.07
2023-03-31T10:57:17.650Z,2.90
2023-03-31T10:59:53.005Z,3.03
2023-03-31T11:02:50.028Z,4.00
2023-03-31T11:05:23.285Z,2.93
2023-03-31T11:07:56.597Z,3.30
2023-03-31T11:10:45.595Z,3.87
2023-03-31T11:13:15.855Z,4.27
2023-03-31T11:15:49.438Z,3.73
2023-03-31T11:18:26.586Z,5.10
2023-03-31T11:21:00.199Z,3.20
2023-03-31T11:23:32.265Z,3.47
2023-03-31T11:26:03.212Z,4.03
2023-03-31T11:28:39.503Z,2.73
2023-03-31T11:31:15.519Z,3.53
2023-03-31T11:33:50.767Z,3.80
2023-03-31T11:36:28.633Z,5.10
2023-03-31T11:39:11.313Z,3.37
2023-03-31T11:41:41.140Z,2.70
2023-03-31T11:44:12.714Z,2.70
2023-03-31T11:46:42.972Z,2.50
2023-03-31T11:49:18.131Z,2.43
2023-03-31T11:51:50.388Z,3.03
2023-03-31T11:54:20.993Z,2.63
2023-03-31T11:56:49.325Z,4.00
2023-03-31T11:59:19.155Z,3.23
2023-03-31T12:01:50.445Z,2.50
2023-03-31T12:04:26.261Z,3.10
2023-03-31T12:07:02.313Z,3.60
2023-03-31T12:09:36.753Z,3.33
2023-03-31T12:12:07.269Z,2.60
2023-03-31T12:14:36.844Z,2.97
2023-03-31T12:17:06.896Z,3.00
2023-03-31T12:19:38.766Z,2.50
2023-03-31T12:22:12.704Z,3.30
2023-03-31T12:24:41.158Z,3.50
2023-03-31T12:27:13.428Z,3.20
2023-03-31T12:29:43.233Z,3.00
2023-03-31T12:32:13.958Z,2.53
2023-03-31T12:34:46.997Z,2.50
2023-03-31T12:37:48.283Z,2.27
2023-03-31T12:40:25.886Z,2.23
2023-03-31T12:43:03.309Z,2.40
2023-03-31T12:45:32.329Z,2.47
2023-03-31T12:48:07.761Z,3.10
2023-03-31T12:50:43.593Z,2.00
2023-03-31T12:53:19.349Z,3.20
2023-03-31T12:55:49.390Z,3.67
2023-03-31T12:58:36.332Z,2.77
2023-03-31T13:01:06.668Z,2.27
2023-03-31T13:03:40.097Z,1.80
2023-03-31T13:06:10.934Z,2.30
2023-03-31T13:08:52.729Z,2.37
2023-03-31T13:11:23.571Z,1.87
2023-03-31T13:16:48.649Z,2.83
2023-03-31T13:19:28.654Z,2.03
2023-03-31T13:21:57.653Z,1.77
2023-03-31T13:24:26.688Z,1.90
2023-03-31T13:26:59.162Z,2.37
2023-03-31T13:29:28.600Z,2.37
2023-03-31T13:32:29.989Z,2.10
2023-03-31T13:35:01.406Z,1.80
2023-03-31T13:37:51.764Z,2.53
2023-03-31T13:40:44.045Z,1.70
2023-03-31T13:43:22.117Z,1.70
2023-03-31T13:45:56.009Z,2.03
2023-03-31T13:48:36.058Z,1.40
2023-03-31T13:51:17.405Z,1.60
2023-03-31T13:53:59.297Z,2.50
2023-03-31T13:56:35.577Z,1.67
2023-03-31T13:59:20.872Z,1.50
2023-03-31T14:01:58.275Z,1.63
2023-03-31T14:04:50.803Z,2.90
2023-03-31T14:07:20.374Z,2.40
2023-03-31T14:09:50.529Z,2.40
2023-03-31T14:12:22.145Z,3.80
2023-03-31T14:14:54.744Z,2.53
2023-03-31T14:17:23.694Z,1.87
2023-03-31T14:19:57.927Z,2.00
2023-03-31T14:22:32.467Z,2.43
2023-03-31T14:25:07.323Z,1.80
2023-03-31T14:27:43.727Z,2.17
2023-03-31T14:30:18.774Z,1.80
2023-03-31T14:32:50.459Z,2.40
2023-03-31T14:35:28.790Z,2.77
2023-03-31T14:37:57.966Z,2.23
2023-03-31T14:40:26.633Z,2.20
2023-03-31T14:42:54.997Z,1.53
2023-03-31T14:45:25.849Z,1.57
2023-03-31T14:47:58.226Z,1.93
2023-03-31T14:50:31.264Z,1.57
2023-03-31T14:52:59.747Z,1.90
2023-03-31T14:55:39.323Z,1.63
2023-03-31T14:58:14.672Z,2.07
2023-03-31T15:00:44.394Z,1.83
2023-03-31T15:03:14.749Z,1.40
2023-03-31T15:05:43.535Z,2.00
2023-03-31T15:08:13.901Z,2.20
2023-03-31T15:10:44.418Z,1.50
2023-03-31T15:13:13.821Z,2.30
2023-03-31T15:15:44.098Z,1.80
2023-03-31T15:18:14.653Z,2.67
2023-03-31T15:20:43.445Z,1.50
2023-03-31T15:23:24.749Z,2.87
2023-03-31T15:25:55.587Z,2.13
2023-03-31T15:28:24.112Z,1.97
2023-03-31T15:31:06.847Z,2.63
2023-03-31T15:33:41.976Z,1.63
2023-03-31T15:36:10.629Z,1.83
2023-03-31T15:38:39.189Z,1.77
2023-03-31T15:41:12.970Z,1.70
2023-03-31T15:43:46.829Z,1.57
2023-03-31T15:46:20.314Z,2.20
2023-03-31T15:48:53.906Z,1.93
2023-03-31T15:51:25.998Z,1.50
2023-03-31T15:53:54.722Z,2.13
2023-03-31T15:56:27.764Z,1.80
2023-03-31T15:58:57.251Z,1.70
2023-03-31T16:01:29.345Z,1.83
2023-03-31T16:03:59.199Z,2.13
2023-03-31T16:06:33.659Z,1.57
2023-03-31T16:09:05.751Z,1.83
2023-03-31T16:11:36.977Z,2.80
2023-03-31T16:14:09.622Z,2.13
2023-03-31T16:16:38.716Z,2.00
2023-03-31T16:19:10.102Z,1.60
2023-03-31T16:21:41.163Z,2.10
2023-03-31T16:24:09.816Z,1.80
2023-03-31T16:26:38.827Z,1.70
2023-03-31T16:29:07.110Z,2.00
2023-03-31T16:31:36.639Z,2.07
2023-03-31T16:34:06.397Z,1.43
2023-03-31T16:36:36.337Z,1.63
2023-03-31T16:39:05.881Z,1.63
2023-03-31T16:41:34.882Z,1.70
2023-03-31T16:44:03.240Z,1.27
2023-03-31T16:46:31.530Z,1.87
2023-03-31T16:49:00.392Z,1.90
2023-03-31T16:51:28.668Z,1.53
2023-03-31T16:53:59.390Z,1.30
2023-03-31T16:56:28.135Z,1.23
2023-03-31T16:58:56.448Z,1.37
2023-03-31T17:01:25.763Z,1.60
2023-03-31T17:03:55.085Z,1.37
2023-03-31T17:06:23.439Z,1.67
2023-03-31T17:08:51.732Z,1.63
2023-03-31T17:11:21.534Z,1.40
2023-03-31T17:13:50.057Z,1.03
2023-03-31T17:16:24.353Z,1.47
2023-03-31T17:18:57.550Z,1.60
2023-03-31T17:21:26.216Z,1.73
2023-03-31T17:23:54.698Z,1.00
2023-03-31T17:26:24.308Z,1.20
2023-03-31T17:28:52.632Z,1.80
2023-03-31T17:31:21.503Z,1.40
2023-03-31T17:33:49.933Z,1.93
2023-03-31T17:36:18.365Z,2.50
2023-03-31T17:38:46.542Z,1.70
2023-03-31T17:41:17.662Z,1.60
2023-03-31T17:43:47.460Z,1.57
2023-03-31T17:46:16.229Z,1.37
2023-03-31T17:48:44.778Z,1.10
2023-03-31T17:51:14.806Z,2.33
2023-03-31T17:53:43.270Z,1.57
2023-03-31T17:56:11.713Z,1.60
2023-03-31T17:58:41.497Z,1.70
2023-03-31T18:01:11.709Z,1.47
2023-03-31T18:03:40.097Z,2.03
2023-03-31T18:06:08.948Z,1.13
2023-03-31T18:08:37.280Z,1.73
2023-03-31T18:11:05.957Z,2.17
2023-03-31T18:13:34.683Z,1.47
2023-03-31T18:16:03.678Z,2.03
2023-03-31T18:18:33.647Z,1.97
2023-03-31T18:21:04.673Z,1.50
2023-03-31T18:23:33.763Z,1.63
2023-03-31T18:26:02.563Z,1.30
2023-03-31T18:28:30.879Z,1.40
2023-03-31T18:30:59.189Z,1.30
2023-03-31T18:33:27.619Z,1.40
2023-03-31T18:35:58.479Z,1.57
2023-03-31T18:38:28.903Z,1.53
2023-03-31T18:40:58.025Z,2.50
2023-03-31T18:43:27.034Z,1.70
2023-03-31T18:45:58.414Z,1.57
2023-03-31T18:48:26.808Z,2.23
2023-03-31T18:50:55.558Z,1.60
2023-03-31T18:53:25.575Z,2.37
2023-03-31T18:55:54.664Z,1.40
2023-03-31T18:58:23.072Z,1.80
2023-03-31T19:00:51.484Z,2.63
2023-03-31T19:03:19.738Z,1.70
2023-03-31T19:05:47.985Z,2.13
2023-03-31T19:08:16.206Z,2.30
2023-03-31T19:10:45.736Z,1.60
2023-03-31T19:13:15.974Z,1.93
2023-03-31T19:15:44.273Z,2.53
2023-03-31T19:18:13.904Z,2.73
2023-03-31T19:20:42.189Z,1.40
2023-03-31T19:23:10.454Z,1.90
2023-03-31T19:25:38.637Z,2.17
2023-03-31T19:28:08.618Z,2.30
2023-03-31T19:30:36.887Z,2.00
2023-03-31T19:33:05.196Z,1.60
2023-03-31T19:35:33.587Z,1.30
2023-03-31T19:38:02.530Z,1.73
2023-03-31T19:40:30.791Z,2.30
2023-03-31T19:42:59.038Z,2.67
2023-03-31T19:45:28.855Z,2.27
2023-03-31T19:47:57.663Z,2.40
2023-03-31T19:50:26.023Z,1.90
2023-03-31T19:52:55.460Z,1.90
2023-03-31T19:55:23.751Z,1.93
2023-03-31T19:57:52.006Z,3.03
2023-03-31T20:00:20.936Z,1.90
2023-03-31T20:02:51.832Z,2.90
2023-03-31T20:05:20.471Z,3.47
2023-03-31T20:07:49.818Z,3.00
2023-03-31T20:10:18.232Z,2.50
2023-03-31T20:12:50.283Z,3.63
2023-03-31T20:15:18.473Z,1.90
2023-03-31T20:17:47.258Z,2.60
2023-03-31T20:20:17.337Z,2.67
2023-03-31T20:22:45.739Z,2.90
2023-03-31T20:25:13.968Z,2.90
2023-03-31T20:27:43.573Z,1.90
2023-03-31T20:30:12.216Z,2.10
2023-03-31T20:32:40.551Z,1.90
2023-03-31T20:35:08.971Z,1.97
2023-03-31T20:37:38.837Z,2.67
2023-03-31T20:40:07.418Z,2.40
2023-03-31T20:42:35.920Z,2.10
2023-03-31T20:45:05.392Z,2.47
2023-03-31T20:47:35.155Z,2.27
2023-03-31T20:50:04.132Z,1.63
2023-03-31T20:52:32.415Z,2.03
2023-03-31T20:55:01.926Z,2.57
2023-03-31T20:57:30.887Z,1.80
2023-03-31T21:00:01.785Z,1.90
2023-03-31T21:02:30.325Z,1.93
2023-03-31T21:04:58.482Z,1.83
2023-03-31T21:07:26.730Z,2.10
2023-03-31T21:09:54.968Z,1.97
2023-03-31T21:12:25.038Z,1.93
2023-03-31T21:14:53.281Z,2.00
2023-03-31T21:17:21.468Z,2.10
2023-03-31T21:19:49.654Z,1.70
2023-03-31T21:22:17.823Z,1.80
2023-03-31T21:24:46.017Z,1.87
2023-03-31T21:27:14.215Z,2.40
2023-03-31T21:29:43.782Z,1.73
2023-03-31T21:32:12.822Z,1.40
2023-03-31T21:34:41.253Z,1.50
2023-03-31T21:37:09.905Z,2.40
2023-03-31T21:39:38.182Z,2.13
2023-03-31T21:42:06.665Z,1.60
2023-03-31T21:44:34.836Z,1.53
2023-03-31T21:47:04.422Z,1.30
2023-03-31T21:49:32.678Z,2.30
2023-03-31T21:52:00.843Z,1.20
2023-03-31T21:54:29.058Z,1.50
2023-03-31T21:56:57.232Z,1.40
2023-03-31T21:59:25.440Z,1.50
2023-03-31T22:01:53.686Z,1.67
2023-03-31T22:04:23.256Z,1.43
2023-03-31T22:06:52.251Z,1.53
2023-03-31T22:09:20.594Z,1.67
2023-03-31T22:11:48.836Z,1.20
2023-03-31T22:14:17.076Z,1.63
2023-03-31T22:16:45.819Z,1.40
2023-03-31T22:19:14.711Z,2.03
2023-03-31T22:21:45.010Z,1.20
2023-03-31T22:24:14.342Z,1.70
2023-03-31T22:26:42.523Z,1.50
2023-03-31T22:29:14.287Z,1.70
2023-03-31T22:31:42.476Z,1.37
2023-03-31T22:34:10.723Z,1.10
2023-03-31T22:36:38.915Z,1.10
2023-03-31T22:39:08.530Z,1.17
2023-03-31T22:41:36.714Z,1.60
2023-03-31T22:44:05.012Z,1.37
2023-03-31T22:46:33.652Z,1.67
2023-03-31T22:49:01.919Z,2.23
2023-03-31T22:51:30.332Z,1.17
2023-03-31T22:53:58.983Z,1.60
2023-03-31T22:56:29.420Z,1.30
2023-03-31T22:58:58.413Z,0.90
2023-03-31T23:01:26.711Z,0.93
2023-03-31T23:03:55.641Z,1.30
2023-03-31T23:06:24.203Z,1.30
2023-03-31T23:08:52.494Z,1.07
2023-03-31T23:11:20.938Z,0.70
2023-03-31T23:13:50.572Z,1.20
2023-03-31T23:16:19.400Z,1.40
2023-03-31T23:18:48.525Z,1.97
2023-03-31T23:21:19.283Z,1.00
2023-03-31T23:23:47.546Z,1.20
2023-03-31T23:26:15.877Z,1.40
2023-03-31T23:28:45.474Z,1.00
2023-03-31T23:31:15.360Z,1.20
2023-03-31T23:33:44.088Z,1.30
2023-03-31T23:36:16.847Z,1.13
2023-03-31T23:38:45.275Z,1.40
2023-03-31T23:41:13.871Z,1.40
2023-03-31T23:43:42.333Z,1.27
2023-03-31T23:46:10.821Z,1.37
2023-03-31T23:48:41.325Z,1.17
2023-03-31T23:51:09.833Z,1.50
2023-03-31T23:53:38.320Z,0.83
2023-03-31T23:56:08.622Z,1.40
2023-03-31T23:58:37.221Z,1.30
